createdAt,value
2023-05-06T00:02:38.559Z,101186.81
2023-05-06T00:05:23.740Z,101194.25
2023-05-06T00:08:08.748Z,101196.16
2023-05-06T00:10:53.916Z,101192.81
2023-05-06T00:13:38.910Z,101195.09
2023-05-06T00:16:24.962Z,101188.38
2023-05-06T00:19:10.115Z,101186.91
2023-05-06T00:21:55.847Z,101182.91
2023-05-06T00:24:41.061Z,101203.19
2023-05-06T00:27:25.986Z,101198.69
2023-05-06T00:30:11.803Z,101190.25
2023-05-06T00:32:56.726Z,101180.72
2023-05-06T00:35:41.713Z,101176.50
2023-05-06T00:38:27.054Z,101172.00
2023-05-06T00:41:12.300Z,101173.25
2023-05-06T00:43:59.575Z,101177.66
2023-05-06T00:46:44.737Z,101172.00
2023-05-06T00:49:30.739Z,101173.88
2023-05-06T00:52:17.560Z,101175.56
2023-05-06T00:55:02.909Z,101160.41
2023-05-06T00:57:51.865Z,101169.06
2023-05-06T01:00:36.955Z,101159.38
2023-05-06T01:03:22.359Z,101176.59
2023-05-06T01:06:32.285Z,101183.25
2023-05-06T01:09:42.140Z,101172.22
2023-05-06T01:12:27.746Z,101168.63
2023-05-06T01:15:20.829Z,101156.31
2023-05-06T01:18:10.724Z,101164.00
2023-05-06T01:20:58.450Z,101154.13
2023-05-06T01:23:51.306Z,101158.84
2023-05-06T01:26:36.525Z,101163.91
2023-05-06T01:29:21.682Z,101169.03
2023-05-06T01:32:31.472Z,101161.69
2023-05-06T01:35:22.320Z,101162.09
2023-05-06T01:38:17.356Z,101158.53
2023-05-06T01:41:03.244Z,101148.97
2023-05-06T01:43:51.366Z,101145.72
2023-05-06T01:46:36.722Z,101158.13
2023-05-06T01:49:24.788Z,101161.56
2023-05-06T01:52:10.161Z,101152.25
2023-05-06T01:54:55.529Z,101148.97
2023-05-06T01:57:40.346Z,101161.06
2023-05-06T02:00:26.497Z,101156.75
2023-05-06T02:03:11.921Z,101149.81
2023-05-06T02:05:57.014Z,101148.13
2023-05-06T02:08:41.948Z,101145.50
2023-05-06T02:11:26.848Z,101139.28
2023-05-06T02:14:11.699Z,101147.00
2023-05-06T02:16:56.539Z,101131.22
2023-05-06T02:19:41.522Z,101136.78
2023-05-06T02:22:26.673Z,101132.69
2023-05-06T02:25:11.677Z,101138.69
2023-05-06T02:27:56.895Z,101144.06
2023-05-06T02:30:41.735Z,101142.13
2023-05-06T02:33:28.200Z,101149.94
2023-05-06T02:36:13.185Z,101124.91
2023-05-06T02:38:59.490Z,101127.53
2023-05-06T02:41:44.767Z,101133.84
2023-05-06T02:44:29.706Z,101131.22
2023-05-06T02:47:14.990Z,101134.03
2023-05-06T02:49:59.794Z,101138.25
2023-05-06T02:52:45.098Z,101132.69
2023-05-06T02:55:30.615Z,101127.25
2023-05-06T02:58:15.640Z,101133.84
2023-05-06T03:01:00.864Z,101127.25
2023-05-06T03:03:46.081Z,101101.97
2023-05-06T03:06:31.565Z,101127.03
2023-05-06T03:09:16.979Z,101128.91
2023-05-06T03:12:02.235Z,101134.34
2023-05-06T03:14:47.459Z,101123.84
2023-05-06T03:17:32.381Z,101109.56
2023-05-06T03:20:17.241Z,101126.19
2023-05-06T03:23:02.162Z,101100.72
2023-05-06T03:25:47.229Z,101122.59
2023-05-06T03:28:32.450Z,101077.19
2023-05-06T03:31:17.428Z,101115.03
2023-05-06T03:34:02.569Z,101113.31
2023-05-06T03:36:47.780Z,101107.25
2023-05-06T03:39:32.862Z,101110.69
2023-05-06T03:42:17.814Z,101104.72
2023-05-06T03:45:03.116Z,101102.28
2023-05-06T03:47:48.404Z,101105.03
2023-05-06T03:50:33.900Z,101104.81
2023-05-06T03:53:19.366Z,101109.03
2023-05-06T03:56:04.883Z,101106.59
2023-05-06T03:58:49.934Z,101107.66
2023-05-06T04:01:35.361Z,101103.25
2023-05-06T04:04:20.496Z,101110.19
2023-05-06T04:07:05.467Z,101114.69
2023-05-06T04:09:50.644Z,101080.88
2023-05-06T04:12:35.791Z,101104.50
2023-05-06T04:15:21.145Z,101103.25
2023-05-06T04:18:07.898Z,101102.50
2023-05-06T04:20:53.428Z,101107.22
2023-05-06T04:23:38.625Z,101087.50
2023-05-06T04:26:23.590Z,101099.34
2023-05-06T04:29:09.222Z,101097.03
2023-05-06T04:31:54.396Z,101104.00
2023-05-06T04:34:39.505Z,101102.28
2023-05-06T04:37:24.533Z,101094.75
2023-05-06T04:40:11.678Z,101082.84
2023-05-06T04:42:56.660Z,101093.69
2023-05-06T04:45:51.508Z,101071.72
2023-05-06T04:48:37.913Z,101108.69
2023-05-06T04:51:22.763Z,101095.34
2023-05-06T04:54:09.213Z,101108.91
2023-05-06T04:56:54.278Z,101105.84
2023-05-06T04:59:39.796Z,101117.09
2023-05-06T05:02:24.823Z,101103.66
2023-05-06T05:05:10.905Z,101112.06
2023-05-06T05:07:56.497Z,101110.19
2023-05-06T05:10:43.549Z,101123.28
2023-05-06T05:13:28.498Z,101113.19
2023-05-06T05:16:13.811Z,101115.59
2023-05-06T05:19:00.281Z,101124.00
2023-05-06T05:21:46.674Z,101119.22
2023-05-06T05:24:31.927Z,101115.31
2023-05-06T05:27:16.892Z,101122.97
2023-05-06T05:30:02.236Z,101124.84
2023-05-06T05:32:47.510Z,101139.78
2023-05-06T05:35:32.579Z,101128.97
2023-05-06T05:38:17.956Z,101136.97
2023-05-06T05:41:03.252Z,101139.81
2023-05-06T05:43:48.520Z,101133.72
2023-05-06T05:46:33.603Z,101142.78
2023-05-06T05:49:18.848Z,101146.16
2023-05-06T05:52:04.091Z,101150.00
2023-05-06T05:54:49.796Z,101140.03
2023-05-06T05:57:34.843Z,101139.28
2023-05-06T06:00:20.411Z,101139.72
2023-05-06T06:03:06.130Z,101151.06
2023-05-06T06:05:53.082Z,101150.03
2023-05-06T06:08:38.283Z,101149.59
2023-05-06T06:11:25.370Z,101140.13
2023-05-06T06:14:11.199Z,101146.34
2023-05-06T06:16:56.448Z,101155.88
2023-05-06T06:19:42.153Z,101158.50
2023-05-06T06:22:27.042Z,101149.25
2023-05-06T06:25:12.645Z,101141.69
2023-05-06T06:27:58.125Z,101160.69
2023-05-06T06:30:43.032Z,101161.56
2023-05-06T06:33:28.102Z,101161.94
2023-05-06T06:36:13.112Z,101160.91
2023-05-06T06:38:58.248Z,101157.59
2023-05-06T06:41:43.673Z,101160.13
2023-05-06T06:44:28.772Z,101170.66
2023-05-06T06:47:13.679Z,101168.53
2023-05-06T06:49:58.799Z,101165.38
2023-05-06T06:52:44.206Z,101166.94
2023-05-06T06:55:29.165Z,101162.41
2023-05-06T06:58:14.311Z,101161.22
2023-05-06T07:00:59.585Z,101170.38
2023-05-06T07:03:44.735Z,101152.78
2023-05-06T07:06:29.914Z,101150.16
2023-05-06T07:09:14.842Z,101145.72
2023-05-06T07:12:01.822Z,101166.41
2023-05-06T07:14:46.868Z,101145.72
2023-05-06T07:17:32.461Z,101169.00
2023-05-06T07:20:17.425Z,101168.53
2023-05-06T07:23:03.491Z,101162.06
2023-05-06T07:25:48.859Z,101165.31
2023-05-06T07:28:34.123Z,101172.19
2023-05-06T07:31:21.860Z,101166.19
2023-05-06T07:34:07.825Z,101172.28
2023-05-06T07:36:52.933Z,101168.22
2023-05-06T07:39:38.251Z,101171.25
2023-05-06T07:42:23.217Z,101155.66
2023-05-06T07:45:09.230Z,101173.16
2023-05-06T07:47:54.529Z,101171.84
2023-05-06T07:50:39.680Z,101181.06
2023-05-06T07:53:24.984Z,101172.91
2023-05-06T07:56:09.887Z,101170.03
2023-05-06T07:58:54.920Z,101184.69
2023-05-06T08:01:40.118Z,101191.91
2023-05-06T08:04:25.337Z,101188.06
2023-05-06T08:07:11.212Z,101188.75
2023-05-06T08:09:56.596Z,101184.06
2023-05-06T08:12:41.900Z,101191.59
2023-05-06T08:15:27.330Z,101185.50
2023-05-06T08:18:21.553Z,101201.19
2023-05-06T08:21:07.542Z,101204.66
2023-05-06T08:23:52.856Z,101191.84
2023-05-06T08:26:37.838Z,101204.06
2023-05-06T08:29:22.847Z,101196.63
2023-05-06T08:32:07.810Z,101193.75
2023-05-06T08:34:53.581Z,101179.38
2023-05-06T08:37:38.597Z,101192.06
2023-05-06T08:40:27.922Z,101187.00
2023-05-06T08:43:14.585Z,101191.06
2023-05-06T08:45:59.752Z,101188.16
2023-05-06T08:48:45.425Z,101194.78
2023-05-06T08:51:33.562Z,101177.22
2023-05-06T08:54:18.830Z,101181.28
2023-05-06T08:57:10.272Z,101191.25
2023-05-06T08:59:57.034Z,101182.19
2023-05-06T09:02:43.391Z,101187.00
2023-05-06T09:05:29.011Z,101189.22
2023-05-06T09:08:15.837Z,101185.66
2023-05-06T09:11:01.136Z,101189.03
2023-05-06T09:13:46.216Z,101187.28
2023-05-06T09:16:31.475Z,101183.16
2023-05-06T09:19:18.064Z,101183.94
2023-05-06T09:22:03.740Z,101181.09
2023-05-06T09:24:56.652Z,101176.78
2023-05-06T09:27:41.677Z,101190.19
2023-05-06T09:30:27.145Z,101185.66
2023-05-06T09:33:12.287Z,101169.41
2023-05-06T09:35:57.324Z,101194.06
2023-05-06T09:38:42.398Z,101186.09
2023-05-06T09:41:27.814Z,101182.84
2023-05-06T09:44:13.216Z,101187.00
2023-05-06T09:46:59.216Z,101183.38
2023-05-06T09:49:44.437Z,101166.84
2023-05-06T09:52:31.268Z,101184.63
2023-05-06T09:55:21.133Z,101190.41
2023-05-06T09:58:08.125Z,101177.34
2023-05-06T10:00:53.829Z,101181.50
2023-05-06T10:03:39.945Z,101184.41
2023-05-06T10:06:26.085Z,101181.00
2023-05-06T10:09:11.387Z,101184.00
2023-05-06T10:11:57.824Z,101170.91
2023-05-06T10:14:42.922Z,101161.34
2023-05-06T10:17:29.385Z,101179.28
2023-05-06T10:20:16.492Z,101184.03
2023-05-06T10:23:13.066Z,101179.59
2023-05-06T10:26:06.782Z,101173.19
2023-05-06T10:28:53.508Z,101162.84
2023-05-06T10:31:44.258Z,101179.97
2023-05-06T10:34:37.795Z,101170.81
2023-05-06T10:37:30.182Z,101160.59
2023-05-06T10:40:15.604Z,101169.53
2023-05-06T10:43:34.295Z,101171.00
2023-05-06T10:46:19.260Z,101165.47
2023-05-06T10:49:04.457Z,101145.75
2023-05-06T10:52:09.989Z,101153.81
2023-05-06T10:54:55.032Z,101171.53
2023-05-06T10:57:41.220Z,101169.41
2023-05-06T11:00:26.403Z,101158.63
2023-05-06T11:03:15.669Z,101161.84
2023-05-06T11:06:01.249Z,101160.25
2023-05-06T11:08:56.124Z,101154.84
2023-05-06T11:11:47.208Z,101166.00
2023-05-06T11:14:37.817Z,101161.34
2023-05-06T11:17:34.081Z,101164.31
2023-05-06T11:20:26.616Z,101167.41
2023-05-06T11:23:11.983Z,101160.53
2023-05-06T11:25:58.347Z,101157.25
2023-05-06T11:28:47.767Z,101152.84
2023-05-06T11:31:39.277Z,101130.03
2023-05-06T11:34:29.719Z,101153.78
2023-05-06T11:37:27.813Z,101150.97
2023-05-06T11:40:16.182Z,101155.97
2023-05-06T11:43:10.407Z,101150.84
2023-05-06T11:45:55.843Z,101149.97
2023-05-06T11:48:42.950Z,101142.59
2023-05-06T11:51:27.936Z,101127.84
2023-05-06T11:54:15.063Z,101148.25
2023-05-06T11:56:59.972Z,101132.22
2023-05-06T11:59:44.880Z,101152.22
2023-05-06T12:02:29.940Z,101147.16
2023-05-06T12:05:15.261Z,101149.38
2023-05-06T12:08:00.543Z,101139.38
2023-05-06T12:10:46.797Z,101146.56
2023-05-06T12:13:32.371Z,101136.09
2023-05-06T12:16:17.975Z,101145.88
2023-05-06T12:19:03.656Z,101141.13
2023-05-06T12:21:48.570Z,101150.06
2023-05-06T12:24:33.764Z,101152.91
2023-05-06T12:27:32.824Z,101147.63
2023-05-06T12:30:29.545Z,101144.09
2023-05-06T12:33:14.884Z,101139.25
2023-05-06T12:36:07.176Z,101133.25
2023-05-06T12:38:58.630Z,101150.03
2023-05-06T12:41:45.864Z,101139.59
2023-05-06T12:44:32.626Z,101144.84
2023-05-06T12:47:21.022Z,101152.66
2023-05-06T12:50:06.213Z,101143.78
2023-05-06T12:52:51.327Z,101144.16
2023-05-06T12:55:38.318Z,101150.97
2023-05-06T12:58:23.586Z,101148.59
2023-05-06T13:01:09.626Z,101141.03
2023-05-06T13:03:57.225Z,101148.78
2023-05-06T13:06:42.156Z,101158.38
2023-05-06T13:09:27.199Z,101156.28
2023-05-06T13:12:12.235Z,101151.69
2023-05-06T13:14:57.462Z,101148.66
2023-05-06T13:17:42.779Z,101151.09
2023-05-06T13:20:28.143Z,101158.31
2023-05-06T13:23:13.435Z,101155.72
2023-05-06T13:26:04.726Z,101158.09
2023-05-06T13:28:51.026Z,101150.44
2023-05-06T13:31:35.969Z,101145.84
2023-05-06T13:34:21.255Z,101152.94
2023-05-06T13:37:06.341Z,101150.72
2023-05-06T13:39:51.511Z,101149.47
2023-05-06T13:42:36.584Z,101146.06
2023-05-06T13:45:21.748Z,101143.59
2023-05-06T13:48:07.044Z,101145.59
2023-05-06T13:50:51.966Z,101146.56
2023-05-06T13:53:39.369Z,101140.31
2023-05-06T13:56:24.728Z,101136.97
2023-05-06T13:59:11.823Z,101132.22
2023-05-06T14:02:01.692Z,101126.50
2023-05-06T14:04:47.413Z,101134.84
2023-05-06T14:07:32.550Z,101134.81
2023-05-06T14:10:20.813Z,101130.72
2023-05-06T14:13:07.335Z,101126.16
2023-05-06T14:15:54.116Z,101127.53
2023-05-06T14:18:39.106Z,101134.72
2023-05-06T14:21:24.303Z,101123.44
2023-05-06T14:24:11.307Z,101118.41
2023-05-06T14:26:56.539Z,101124.88
2023-05-06T14:29:43.161Z,101124.41
2023-05-06T14:32:28.021Z,101116.25
2023-05-06T14:35:13.169Z,101123.91
2023-05-06T14:37:58.472Z,101123.78
2023-05-06T14:40:43.639Z,101115.97
2023-05-06T14:43:28.547Z,101114.56
2023-05-06T14:46:14.662Z,101118.16
2023-05-06T14:48:59.952Z,101112.31
2023-05-06T14:51:49.738Z,101110.38
2023-05-06T14:54:34.946Z,101096.47
2023-05-06T14:57:19.976Z,101097.44
2023-05-06T15:00:10.053Z,101092.00
2023-05-06T15:02:56.270Z,101095.25
2023-05-06T15:05:41.467Z,101102.09
2023-05-06T15:08:26.516Z,101094.53
2023-05-06T15:11:12.208Z,101093.38
2023-05-06T15:13:57.423Z,101094.03
2023-05-06T15:16:42.862Z,101075.78
2023-05-06T15:19:27.800Z,101092.63
2023-05-06T15:22:13.131Z,101092.63
2023-05-06T15:24:58.510Z,101085.16
2023-05-06T15:27:43.524Z,101088.75
2023-05-06T15:30:28.575Z,101083.97
2023-05-06T15:33:13.359Z,101090.34
2023-05-06T15:35:58.268Z,101091.72
2023-05-06T15:38:59.610Z,101091.72
2023-05-06T15:41:46.332Z,101087.63
2023-05-06T15:44:33.254Z,101068.50
2023-05-06T15:47:18.912Z,101086.22
2023-05-06T15:50:14.135Z,101091.03
2023-05-06T15:53:06.338Z,101094.19
2023-05-06T15:55:56.770Z,101089.75
2023-05-06T15:58:43.769Z,101081.69
2023-05-06T16:01:57.374Z,101094.25
2023-05-06T16:04:34.609Z,101088.03
2023-05-06T16:07:19.848Z,101097.63
2023-05-06T16:10:05.307Z,101094.25
2023-05-06T16:12:50.750Z,101079.19
2023-05-06T16:15:36.144Z,101091.34
2023-05-06T16:18:21.369Z,101084.53
2023-05-06T16:21:07.529Z,101095.50
2023-05-06T16:23:52.521Z,101102.94
2023-05-06T16:26:37.726Z,101082.31
2023-05-06T16:29:23.003Z,101075.75
2023-05-06T16:32:08.216Z,101070.00
2023-05-06T16:34:53.293Z,101088.47
2023-05-06T16:37:38.531Z,101079.88
2023-05-06T16:40:23.884Z,101086.22
2023-05-06T16:43:09.633Z,101078.56
2023-05-06T16:45:54.624Z,101087.78
2023-05-06T16:48:39.866Z,101074.22
2023-05-06T16:51:25.164Z,101066.09
2023-05-06T16:54:10.411Z,101079.97
2023-05-06T16:56:55.773Z,101065.03
2023-05-06T16:59:40.959Z,101078.69
2023-05-06T17:02:26.335Z,101071.38
2023-05-06T17:05:11.687Z,101073.78
2023-05-06T17:07:57.168Z,101045.56
2023-05-06T17:10:43.595Z,101058.97
2023-05-06T17:13:28.808Z,101062.44
2023-05-06T17:16:13.738Z,101065.31
2023-05-06T17:18:59.078Z,101063.31
2023-05-06T17:21:44.224Z,101063.06
2023-05-06T17:24:29.281Z,101061.34
2023-05-06T17:27:14.223Z,101066.38
2023-05-06T17:30:00.866Z,101045.16
2023-05-06T17:32:46.033Z,101048.41
2023-05-06T17:35:31.282Z,101043.88
2023-05-06T17:38:16.935Z,101031.66
2023-05-06T17:41:02.053Z,101045.06
2023-05-06T17:43:47.457Z,101035.22
2023-05-06T17:46:33.526Z,101046.41
2023-05-06T17:49:19.126Z,101051.56
2023-05-06T17:52:04.192Z,101046.31
2023-05-06T17:54:56.990Z,101050.38
2023-05-06T17:57:52.420Z,101035.28
2023-05-06T18:00:38.183Z,101043.44
2023-05-06T18:03:23.582Z,101049.19
2023-05-06T18:06:08.554Z,101053.28
2023-05-06T18:08:53.709Z,101055.19
2023-05-06T18:11:39.358Z,101062.03
2023-05-06T18:14:24.147Z,101055.03
2023-05-06T18:17:09.082Z,101043.44
2023-05-06T18:19:53.970Z,101056.03
2023-05-06T18:22:39.631Z,101048.09
2023-05-06T18:25:25.345Z,101040.56
2023-05-06T18:28:10.471Z,101056.75
2023-05-06T18:30:55.385Z,101054.94
2023-05-06T18:33:40.307Z,101070.75
2023-05-06T18:36:25.541Z,101058.41
2023-05-06T18:39:10.884Z,101048.72
2023-05-06T18:41:56.026Z,101069.09
2023-05-06T18:44:42.683Z,101069.94
2023-05-06T18:47:27.687Z,101068.22
2023-05-06T18:50:12.662Z,101061.19
2023-05-06T18:52:57.970Z,101069.09
2023-05-06T18:55:43.096Z,101075.69
2023-05-06T18:58:27.879Z,101057.00
2023-05-06T19:01:12.847Z,101070.09
2023-05-06T19:03:58.022Z,101067.44
2023-05-06T19:06:43.060Z,101065.63
2023-05-06T19:09:28.056Z,101058.09
2023-05-06T19:12:13.417Z,101071.41
2023-05-06T19:14:58.679Z,101072.50
2023-05-06T19:17:45.512Z,101058.09
2023-05-06T19:20:30.416Z,101068.16
2023-05-06T19:23:15.595Z,101071.88
2023-05-06T19:26:00.688Z,101074.16
2023-05-06T19:28:45.863Z,101072.84
2023-05-06T19:31:31.002Z,101055.25
2023-05-06T19:34:16.285Z,101072.03
2023-05-06T19:37:01.380Z,101056.66
2023-05-06T19:39:47.547Z,101056.66
2023-05-06T19:42:33.891Z,101051.41
2023-05-06T19:45:19.537Z,101055.38
2023-05-06T19:48:04.770Z,101064.47
2023-05-06T19:50:50.738Z,101070.34
2023-05-06T19:53:36.029Z,101083.19
2023-05-06T19:56:21.394Z,101071.56
2023-05-06T19:59:06.584Z,101059.69
2023-05-06T20:01:53.220Z,101067.94
2023-05-06T20:04:38.426Z,101067.22
2023-05-06T20:07:23.615Z,101072.28
2023-05-06T20:10:09.913Z,101071.31
2023-05-06T20:12:57.343Z,101075.75
2023-05-06T20:15:43.965Z,101072.97
2023-05-06T20:18:31.352Z,101077.53
2023-05-06T20:21:16.682Z,101077.75
2023-05-06T20:24:01.808Z,101050.72
2023-05-06T20:26:46.756Z,101069.41
2023-05-06T20:29:32.628Z,101082.94
2023-05-06T20:32:17.738Z,101091.19
2023-05-06T20:35:04.270Z,101089.78
2023-05-06T20:37:49.119Z,101088.09
2023-05-06T20:40:36.762Z,101093.25
2023-05-06T20:43:21.699Z,101102.13
2023-05-06T20:46:06.947Z,101088.31
2023-05-06T20:48:52.192Z,101096.00
2023-05-06T20:51:37.527Z,101096.00
2023-05-06T20:54:22.827Z,101091.09
2023-05-06T20:57:07.720Z,101099.72
2023-05-06T20:59:53.060Z,101106.78
2023-05-06T21:02:41.412Z,101117.31
2023-05-06T21:05:27.110Z,101113.59
2023-05-06T21:08:12.822Z,101107.63
2023-05-06T21:10:57.610Z,101100.81
2023-05-06T21:13:42.581Z,101100.31
2023-05-06T21:16:27.864Z,101095.16
2023-05-06T21:19:13.068Z,101086.19
2023-05-06T21:21:58.405Z,101100.56
2023-05-06T21:24:43.314Z,101101.75
2023-05-06T21:27:28.251Z,101100.91
2023-05-06T21:30:13.452Z,101105.22
2023-05-06T21:32:58.731Z,101102.84
2023-05-06T21:35:44.120Z,101107.28
2023-05-06T21:38:28.964Z,101104.53
2023-05-06T21:41:14.432Z,101108.81
2023-05-06T21:43:59.379Z,101115.41
2023-05-06T21:46:44.538Z,101112.16
2023-05-06T21:49:29.762Z,101112.06
2023-05-06T21:52:14.783Z,101116.16
2023-05-06T21:55:00.408Z,101117.09
2023-05-06T21:57:46.324Z,101114.44
2023-05-06T22:00:31.695Z,101117.56
2023-05-06T22:03:17.057Z,101112.31
2023-05-06T22:06:04.039Z,101113.88
2023-05-06T22:08:49.394Z,101102.50
2023-05-06T22:11:38.580Z,101113.88
2023-05-06T22:14:26.981Z,101106.19
2023-05-06T22:17:15.673Z,101119.13
2023-05-06T22:20:04.214Z,101121.63
2023-05-06T22:22:51.775Z,101112.06
2023-05-06T22:25:36.841Z,101102.72
2023-05-06T22:28:22.026Z,101113.97
2023-05-06T22:31:07.102Z,101108.22
2023-05-06T22:33:55.510Z,101121.88
2023-05-06T22:36:40.704Z,101101.28
2023-05-06T22:39:25.635Z,101108.69
2023-05-06T22:42:10.531Z,101107.63
2023-05-06T22:44:55.556Z,101107.03
2023-05-06T22:47:41.041Z,101117.34
2023-05-06T22:50:26.044Z,101126.66
2023-05-06T22:53:15.297Z,101115.88
2023-05-06T22:56:01.084Z,101125.72
2023-05-06T22:58:46.231Z,101131.44
2023-05-06T23:01:32.262Z,101121.78
2023-05-06T23:04:17.804Z,101126.19
2023-05-06T23:07:03.081Z,101132.41
2023-05-06T23:09:48.418Z,101123.09
2023-05-06T23:12:34.544Z,101133.16
2023-05-06T23:15:19.675Z,101127.50
2023-05-06T23:18:05.055Z,101135.06
2023-05-06T23:20:49.985Z,101130.25
2023-05-06T23:23:35.047Z,101129.06
2023-05-06T23:26:19.950Z,101110.25
2023-05-06T23:29:05.373Z,101130.75
2023-05-06T23:31:50.669Z,101121.88
2023-05-06T23:34:35.877Z,101116.94
2023-05-06T23:37:21.125Z,101111.44
2023-05-06T23:40:07.177Z,101117.19
2023-05-06T23:42:52.167Z,101100.31
2023-05-06T23:45:37.910Z,101129.28
2023-05-06T23:48:22.889Z,101125.22
2023-05-06T23:51:08.159Z,101132.91
2023-05-06T23:53:53.122Z,101132.16
2023-05-06T23:56:38.256Z,101124.75
2023-05-06T23:59:23.332Z,101125.44
